sensor_id;sensor_type;location;lat;lon;timestamp;P1;durP1;ratioP1;P2;durP2;ratioP2
50681;SDS011;36779;52.168;20.878;2022-09-02T00:02:02;6.30;;;2.20;;
50681;SDS011;36779;52.168;20.878;2022-09-02T00:04:31;4.40;;;1.80;;
50681;SDS011;36779;52.168;20.878;2022-09-02T00:07:00;3.10;;;1.70;;
50681;SDS011;36779;52.168;20.878;2022-09-02T00:09:28;5.00;;;1.80;;
50681;SDS011;36779;52.168;20.878;2022-09-02T00:12:00;4.80;;;2.40;;
50681;SDS011;36779;52.168;20.878;2022-09-02T00:14:33;5.90;;;2.90;;
50681;SDS011;36779;52.168;20.878;2022-09-02T00:17:03;4.40;;;2.40;;
50681;SDS011;36779;52.168;20.878;2022-09-02T00:19:32;5.50;;;2.50;;
50681;SDS011;36779;52.168;20.878;2022-09-02T00:22:03;7.10;;;2.80;;
50681;SDS011;36779;52.168;20.878;2022-09-02T00:24:32;5.40;;;2.50;;
50681;SDS011;36779;52.168;20.878;2022-09-02T00:27:02;5.40;;;2.80;;
50681;SDS011;36779;52.168;20.878;2022-09-02T00:29:34;6.70;;;2.50;;
50681;SDS011;36779;52.168;20.878;2022-09-02T00:32:05;6.10;;;2.50;;
50681;SDS011;36779;52.168;20.878;2022-09-02T00:34:34;8.50;;;2.50;;
50681;SDS011;36779;52.168;20.878;2022-09-02T00:37:06;4.20;;;2.00;;
50681;SDS011;36779;52.168;20.878;2022-09-02T00:39:35;4.60;;;2.00;;
50681;SDS011;36779;52.168;20.878;2022-09-02T00:42:04;5.60;;;2.10;;
50681;SDS011;36779;52.168;20.878;2022-09-02T00:44:33;5.20;;;2.00;;
50681;SDS011;36779;52.168;20.878;2022-09-02T00:47:02;5.00;;;2.00;;
50681;SDS011;36779;52.168;20.878;2022-09-02T00:49:32;6.70;;;2.90;;
50681;SDS011;36779;52.168;20.878;2022-09-02T00:52:08;5.70;;;2.70;;
50681;SDS011;36779;52.168;20.878;2022-09-02T00:54:43;8.60;;;2.40;;
50681;SDS011;36779;52.168;20.878;2022-09-02T00:57:15;5.70;;;2.50;;
50681;SDS011;36779;52.168;20.878;2022-09-02T00:59:49;5.30;;;2.50;;
50681;SDS011;36779;52.168;20.878;2022-09-02T01:02:23;4.30;;;1.90;;
50681;SDS011;36779;52.168;20.878;2022-09-02T01:04:53;6.10;;;3.00;;
50681;SDS011;36779;52.168;20.878;2022-09-02T01:07:22;3.70;;;1.90;;
50681;SDS011;36779;52.168;20.878;2022-09-02T01:09:54;4.90;;;1.90;;
50681;SDS011;36779;52.168;20.878;2022-09-02T01:12:23;2.30;;;1.10;;
50681;SDS011;36779;52.168;20.878;2022-09-02T01:14:53;2.50;;;1.10;;
50681;SDS011;36779;52.168;20.878;2022-09-02T01:17:24;3.20;;;0.80;;
50681;SDS011;36779;52.168;20.878;2022-09-02T01:19:56;2.80;;;0.80;;
50681;SDS011;36779;52.168;20.878;2022-09-02T01:22:29;1.90;;;0.70;;
50681;SDS011;36779;52.168;20.878;2022-09-02T01:25:01;1.10;;;0.60;;
50681;SDS011;36779;52.168;20.878;2022-09-02T01:27:34;2.20;;;0.80;;
50681;SDS011;36779;52.168;20.878;2022-09-02T01:30:05;2.10;;;0.60;;
50681;SDS011;36779;52.168;20.878;2022-09-02T01:32:38;2.40;;;0.80;;
50681;SDS011;36779;52.168;20.878;2022-09-02T01:35:07;2.50;;;0.80;;
50681;SDS011;36779;52.168;20.878;2022-09-02T01:37:38;1.00;;;0.60;;
50681;SDS011;36779;52.168;20.878;2022-09-02T01:40:22;1.10;;;0.60;;
50681;SDS011;36779;52.168;20.878;2022-09-02T01:42:55;1.00;;;0.50;;
50681;SDS011;36779;52.168;20.878;2022-09-02T01:45:28;2.30;;;0.70;;
50681;SDS011;36779;52.168;20.878;2022-09-02T01:48:00;0.80;;;0.60;;
50681;SDS011;36779;52.168;20.878;2022-09-02T01:50:30;3.40;;;0.70;;
50681;SDS011;36779;52.168;20.878;2022-09-02T01:52:59;2.70;;;0.60;;
50681;SDS011;36779;52.168;20.878;2022-09-02T01:55:30;4.20;;;0.90;;
50681;SDS011;36779;52.168;20.878;2022-09-02T01:58:00;1.50;;;0.50;;
50681;SDS011;36779;52.168;20.878;2022-09-02T02:00:30;1.20;;;0.50;;
50681;SDS011;36779;52.168;20.878;2022-09-02T02:02:58;0.90;;;0.60;;
50681;SDS011;36779;52.168;20.878;2022-09-02T02:05:29;1.00;;;0.60;;
50681;SDS011;36779;52.168;20.878;2022-09-02T02:07:59;2.90;;;0.90;;
50681;SDS011;36779;52.168;20.878;2022-09-02T02:10:30;0.90;;;0.50;;
50681;SDS011;36779;52.168;20.878;2022-09-02T02:12:59;1.60;;;0.60;;
50681;SDS011;36779;52.168;20.878;2022-09-02T02:15:32;0.70;;;0.50;;
50681;SDS011;36779;52.168;20.878;2022-09-02T02:18:03;1.00;;;0.60;;
50681;SDS011;36779;52.168;20.878;2022-09-02T02:20:32;3.30;;;0.60;;
50681;SDS011;36779;52.168;20.878;2022-09-02T02:23:02;1.70;;;0.70;;
50681;SDS011;36779;52.168;20.878;2022-09-02T02:25:31;1.30;;;0.50;;
50681;SDS011;36779;52.168;20.878;2022-09-02T02:28:01;3.30;;;0.60;;
50681;SDS011;36779;52.168;20.878;2022-09-02T02:30:32;1.90;;;0.70;;
50681;SDS011;36779;52.168;20.878;2022-09-02T02:33:02;1.50;;;0.60;;
50681;SDS011;36779;52.168;20.878;2022-09-02T02:35:31;1.80;;;0.60;;
50681;SDS011;36779;52.168;20.878;2022-09-02T02:38:00;1.00;;;0.40;;
50681;SDS011;36779;52.168;20.878;2022-09-02T02:40:30;3.60;;;0.80;;
50681;SDS011;36779;52.168;20.878;2022-09-02T02:42:59;1.70;;;0.70;;
50681;SDS011;36779;52.168;20.878;2022-09-02T02:45:28;2.10;;;0.70;;
50681;SDS011;36779;52.168;20.878;2022-09-02T02:47:57;1.20;;;0.70;;
50681;SDS011;36779;52.168;20.878;2022-09-02T02:50:28;2.20;;;1.20;;
50681;SDS011;36779;52.168;20.878;2022-09-02T02:52:58;2.20;;;0.80;;
50681;SDS011;36779;52.168;20.878;2022-09-02T02:55:29;1.80;;;0.80;;
50681;SDS011;36779;52.168;20.878;2022-09-02T02:57:58;2.00;;;1.00;;
50681;SDS011;36779;52.168;20.878;2022-09-02T03:00:30;4.70;;;1.50;;
50681;SDS011;36779;52.168;20.878;2022-09-02T03:03:03;2.50;;;0.80;;
50681;SDS011;36779;52.168;20.878;2022-09-02T03:05:35;2.90;;;0.90;;
50681;SDS011;36779;52.168;20.878;2022-09-02T03:08:06;3.90;;;0.60;;
50681;SDS011;36779;52.168;20.878;2022-09-02T03:10:36;1.30;;;0.50;;
50681;SDS011;36779;52.168;20.878;2022-09-02T03:13:08;2.00;;;0.80;;
50681;SDS011;36779;52.168;20.878;2022-09-02T03:15:38;2.00;;;0.60;;
50681;SDS011;36779;52.168;20.878;2022-09-02T03:18:08;1.90;;;0.70;;
50681;SDS011;36779;52.168;20.878;2022-09-02T03:20:38;5.00;;;1.00;;
50681;SDS011;36779;52.168;20.878;2022-09-02T03:23:08;1.30;;;0.60;;
50681;SDS011;36779;52.168;20.878;2022-09-02T03:25:40;1.30;;;0.80;;
50681;SDS011;36779;52.168;20.878;2022-09-02T03:28:16;1.20;;;0.90;;
50681;SDS011;36779;52.168;20.878;2022-09-02T03:30:45;1.60;;;1.00;;
50681;SDS011;36779;52.168;20.878;2022-09-02T03:33:17;1.80;;;0.90;;
50681;SDS011;36779;52.168;20.878;2022-09-02T03:35:46;3.00;;;1.00;;
50681;SDS011;36779;52.168;20.878;2022-09-02T03:38:15;3.50;;;0.90;;
50681;SDS011;36779;52.168;20.878;2022-09-02T03:40:44;5.30;;;0.80;;
50681;SDS011;36779;52.168;20.878;2022-09-02T03:43:12;1.40;;;0.70;;
50681;SDS011;36779;52.168;20.878;2022-09-02T03:45:41;1.60;;;0.70;;
50681;SDS011;36779;52.168;20.878;2022-09-02T03:48:12;1.60;;;0.80;;
50681;SDS011;36779;52.168;20.878;2022-09-02T03:50:44;3.10;;;1.10;;
50681;SDS011;36779;52.168;20.878;2022-09-02T03:53:16;2.00;;;0.70;;
50681;SDS011;36779;52.168;20.878;2022-09-02T03:55:51;1.90;;;0.80;;
50681;SDS011;36779;52.168;20.878;2022-09-02T03:58:22;4.50;;;1.10;;
50681;SDS011;36779;52.168;20.878;2022-09-02T04:00:51;4.00;;;1.00;;
50681;SDS011;36779;52.168;20.878;2022-09-02T04:03:21;1.90;;;0.90;;
50681;SDS011;36779;52.168;20.878;2022-09-02T04:05:50;2.90;;;1.00;;
50681;SDS011;36779;52.168;20.878;2022-09-02T04:08:22;5.50;;;1.00;;
50681;SDS011;36779;52.168;20.878;2022-09-02T04:10:53;2.20;;;1.30;;
50681;SDS011;36779;52.168;20.878;2022-09-02T04:13:25;4.60;;;1.60;;
50681;SDS011;36779;52.168;20.878;2022-09-02T04:15:58;3.40;;;1.20;;
50681;SDS011;36779;52.168;20.878;2022-09-02T04:18:37;6.10;;;1.20;;
50681;SDS011;36779;52.168;20.878;2022-09-02T04:21:10;3.90;;;1.60;;
50681;SDS011;36779;52.168;20.878;2022-09-02T04:23:40;6.50;;;1.20;;
50681;SDS011;36779;52.168;20.878;2022-09-02T04:26:11;10.40;;;1.50;;
50681;SDS011;36779;52.168;20.878;2022-09-02T04:28:42;1.90;;;1.00;;
50681;SDS011;36779;52.168;20.878;2022-09-02T04:31:12;5.10;;;1.50;;
50681;SDS011;36779;52.168;20.878;2022-09-02T04:33:43;3.00;;;1.50;;
50681;SDS011;36779;52.168;20.878;2022-09-02T04:36:14;2.90;;;1.00;;
50681;SDS011;36779;52.168;20.878;2022-09-02T04:38:44;6.60;;;1.80;;
50681;SDS011;36779;52.168;20.878;2022-09-02T04:41:16;7.00;;;1.60;;
50681;SDS011;36779;52.168;20.878;2022-09-02T04:43:47;2.30;;;1.20;;
50681;SDS011;36779;52.168;20.878;2022-09-02T04:46:17;5.20;;;1.50;;
50681;SDS011;36779;52.168;20.878;2022-09-02T04:49:01;6.70;;;1.50;;
50681;SDS011;36779;52.168;20.878;2022-09-02T04:51:34;4.50;;;1.40;;
50681;SDS011;36779;52.168;20.878;2022-09-02T04:54:04;2.60;;;1.20;;
50681;SDS011;36779;52.168;20.878;2022-09-02T04:56:35;3.80;;;1.20;;
50681;SDS011;36779;52.168;20.878;2022-09-02T04:59:04;2.60;;;1.20;;
50681;SDS011;36779;52.168;20.878;2022-09-02T05:01:34;5.90;;;1.50;;
50681;SDS011;36779;52.168;20.878;2022-09-02T05:04:08;3.40;;;1.20;;
50681;SDS011;36779;52.168;20.878;2022-09-02T05:06:44;2.00;;;1.00;;
50681;SDS011;36779;52.168;20.878;2022-09-02T05:09:18;1.50;;;0.90;;
50681;SDS011;36779;52.168;20.878;2022-09-02T05:11:54;3.20;;;1.10;;
50681;SDS011;36779;52.168;20.878;2022-09-02T05:14:25;2.50;;;1.10;;
50681;SDS011;36779;52.168;20.878;2022-09-02T05:16:58;4.90;;;1.10;;
50681;SDS011;36779;52.168;20.878;2022-09-02T05:19:34;2.70;;;1.00;;
50681;SDS011;36779;52.168;20.878;2022-09-02T05:22:03;4.80;;;1.50;;
50681;SDS011;36779;52.168;20.878;2022-09-02T05:24:39;4.80;;;1.10;;
50681;SDS011;36779;52.168;20.878;2022-09-02T05:27:10;4.50;;;1.10;;
50681;SDS011;36779;52.168;20.878;2022-09-02T05:29:41;1.90;;;1.00;;
50681;SDS011;36779;52.168;20.878;2022-09-02T05:32:13;3.30;;;1.00;;
50681;SDS011;36779;52.168;20.878;2022-09-02T05:34:42;3.10;;;0.80;;
50681;SDS011;36779;52.168;20.878;2022-09-02T05:37:11;1.50;;;0.90;;
50681;SDS011;36779;52.168;20.878;2022-09-02T05:39:39;2.20;;;0.80;;
50681;SDS011;36779;52.168;20.878;2022-09-02T05:42:09;1.90;;;0.60;;
50681;SDS011;36779;52.168;20.878;2022-09-02T05:44:38;3.60;;;0.60;;
50681;SDS011;36779;52.168;20.878;2022-09-02T05:47:10;0.80;;;0.50;;
50681;SDS011;36779;52.168;20.878;2022-09-02T05:49:40;1.10;;;0.50;;
50681;SDS011;36779;52.168;20.878;2022-09-02T05:52:11;1.80;;;0.70;;
50681;SDS011;36779;52.168;20.878;2022-09-02T05:54:43;2.50;;;0.80;;
50681;SDS011;36779;52.168;20.878;2022-09-02T05:57:15;1.70;;;0.60;;
50681;SDS011;36779;52.168;20.878;2022-09-02T05:59:53;1.20;;;0.50;;
50681;SDS011;36779;52.168;20.878;2022-09-02T06:02:25;2.80;;;0.70;;
50681;SDS011;36779;52.168;20.878;2022-09-02T06:04:56;1.40;;;0.50;;
50681;SDS011;36779;52.168;20.878;2022-09-02T06:07:24;3.10;;;0.70;;
50681;SDS011;36779;52.168;20.878;2022-09-02T06:09:55;1.70;;;0.60;;
50681;SDS011;36779;52.168;20.878;2022-09-02T06:12:24;2.60;;;0.50;;
50681;SDS011;36779;52.168;20.878;2022-09-02T06:14:57;3.00;;;0.60;;
50681;SDS011;36779;52.168;20.878;2022-09-02T06:17:27;4.30;;;0.90;;
50681;SDS011;36779;52.168;20.878;2022-09-02T06:19:56;2.40;;;0.70;;
50681;SDS011;36779;52.168;20.878;2022-09-02T06:22:29;2.10;;;0.80;;
50681;SDS011;36779;52.168;20.878;2022-09-02T06:24:57;5.80;;;1.00;;
50681;SDS011;36779;52.168;20.878;2022-09-02T06:27:26;1.50;;;0.90;;
50681;SDS011;36779;52.168;20.878;2022-09-02T06:29:56;1.70;;;0.90;;
50681;SDS011;36779;52.168;20.878;2022-09-02T06:32:24;3.30;;;0.80;;
50681;SDS011;36779;52.168;20.878;2022-09-02T06:34:59;3.90;;;0.90;;
50681;SDS011;36779;52.168;20.878;2022-09-02T06:37:28;3.80;;;0.90;;
50681;SDS011;36779;52.168;20.878;2022-09-02T06:39:57;2.80;;;0.90;;
50681;SDS011;36779;52.168;20.878;2022-09-02T06:42:28;4.60;;;1.20;;
50681;SDS011;36779;52.168;20.878;2022-09-02T06:45:12;4.90;;;1.10;;
50681;SDS011;36779;52.168;20.878;2022-09-02T09:48:58;3.40;;;0.80;;
50681;SDS011;36779;52.168;20.878;2022-09-02T09:51:28;4.30;;;0.90;;
50681;SDS011;36779;52.168;20.878;2022-09-02T09:54:16;2.70;;;0.70;;
50681;SDS011;36779;52.168;20.878;2022-09-02T09:56:45;2.50;;;0.80;;
50681;SDS011;36779;52.168;20.878;2022-09-02T10:02:10;2.30;;;0.60;;
50681;SDS011;36779;52.168;20.878;2022-09-02T10:04:47;3.40;;;0.60;;
50681;SDS011;36779;52.168;20.878;2022-09-02T10:07:32;3.50;;;0.60;;
50681;SDS011;36779;52.168;20.878;2022-09-02T10:10:10;2.20;;;0.50;;
50681;SDS011;36779;52.168;20.878;2022-09-02T10:12:45;5.00;;;0.50;;
50681;SDS011;36779;52.168;20.878;2022-09-02T10:15:15;1.50;;;0.40;;
50681;SDS011;36779;52.168;20.878;2022-09-02T10:17:56;0.50;;;0.40;;
50681;SDS011;36779;52.168;20.878;2022-09-02T10:20:37;1.20;;;0.50;;
50681;SDS011;36779;52.168;20.878;2022-09-02T10:23:39;1.50;;;0.40;;
50681;SDS011;36779;52.168;20.878;2022-09-02T10:26:21;1.40;;;0.50;;
50681;SDS011;36779;52.168;20.878;2022-09-02T10:29:24;2.70;;;0.60;;
50681;SDS011;36779;52.168;20.878;2022-09-02T10:32:08;3.30;;;0.60;;
50681;SDS011;36779;52.168;20.878;2022-09-02T10:34:51;4.90;;;0.60;;
50681;SDS011;36779;52.168;20.878;2022-09-02T10:37:31;0.90;;;0.50;;
50681;SDS011;36779;52.168;20.878;2022-09-02T10:40:11;2.80;;;0.50;;
50681;SDS011;36779;52.168;20.878;2022-09-02T10:42:47;0.90;;;0.40;;
50681;SDS011;36779;52.168;20.878;2022-09-02T10:45:29;0.80;;;0.50;;
50681;SDS011;36779;52.168;20.878;2022-09-02T10:48:14;0.50;;;0.40;;
50681;SDS011;36779;52.168;20.878;2022-09-02T10:50:55;3.90;;;0.60;;
50681;SDS011;36779;52.168;20.878;2022-09-02T10:53:36;2.20;;;0.50;;
50681;SDS011;36779;52.168;20.878;2022-09-02T10:56:18;1.70;;;0.50;;
50681;SDS011;36779;52.168;20.878;2022-09-02T10:58:52;2.00;;;0.90;;
50681;SDS011;36779;52.168;20.878;2022-09-02T11:01:24;2.70;;;0.60;;
50681;SDS011;36779;52.168;20.878;2022-09-02T11:04:04;2.70;;;0.70;;
50681;SDS011;36779;52.168;20.878;2022-09-02T11:06:40;2.80;;;0.70;;
50681;SDS011;36779;52.168;20.878;2022-09-02T11:09:31;1.80;;;0.60;;
50681;SDS011;36779;52.168;20.878;2022-09-02T11:12:05;4.80;;;0.90;;
50681;SDS011;36779;52.168;20.878;2022-09-02T11:14:42;2.40;;;0.60;;
50681;SDS011;36779;52.168;20.878;2022-09-02T11:17:20;2.60;;;0.80;;
50681;SDS011;36779;52.168;20.878;2022-09-02T11:19:56;1.30;;;0.60;;
50681;SDS011;36779;52.168;20.878;2022-09-02T11:22:33;2.80;;;0.60;;
50681;SDS011;36779;52.168;20.878;2022-09-02T11:25:11;2.90;;;0.50;;
50681;SDS011;36779;52.168;20.878;2022-09-02T11:27:45;1.90;;;0.50;;
50681;SDS011;36779;52.168;20.878;2022-09-02T11:30:22;1.30;;;0.50;;
50681;SDS011;36779;52.168;20.878;2022-09-02T11:32:55;1.00;;;0.50;;
50681;SDS011;36779;52.168;20.878;2022-09-02T11:35:36;2.40;;;0.60;;
50681;SDS011;36779;52.168;20.878;2022-09-02T11:38:07;2.30;;;0.60;;
50681;SDS011;36779;52.168;20.878;2022-09-02T11:41:03;1.50;;;0.60;;
50681;SDS011;36779;52.168;20.878;2022-09-02T11:44:18;3.20;;;0.50;;
50681;SDS011;36779;52.168;20.878;2022-09-02T11:47:08;2.30;;;0.50;;
50681;SDS011;36779;52.168;20.878;2022-09-02T11:50:01;3.50;;;0.70;;
50681;SDS011;36779;52.168;20.878;2022-09-02T11:52:48;1.80;;;0.50;;
50681;SDS011;36779;52.168;20.878;2022-09-02T11:55:31;1.80;;;0.60;;
50681;SDS011;36779;52.168;20.878;2022-09-02T11:58:07;1.00;;;0.50;;
50681;SDS011;36779;52.168;20.878;2022-09-02T12:01:03;1.50;;;0.40;;
50681;SDS011;36779;52.168;20.878;2022-09-02T12:03:30;0.40;;;0.30;;
50681;SDS011;36779;52.168;20.878;2022-09-02T12:06:19;1.70;;;0.40;;
50681;SDS011;36779;52.168;20.878;2022-09-02T12:08:56;4.20;;;0.60;;
50681;SDS011;36779;52.168;20.878;2022-09-02T12:11:49;1.30;;;0.40;;
50681;SDS011;36779;52.168;20.878;2022-09-02T12:18:05;1.60;;;0.40;;
50681;SDS011;36779;52.168;20.878;2022-09-02T12:29:49;1.70;;;0.50;;
50681;SDS011;36779;52.168;20.878;2022-09-02T12:38:27;0.70;;;0.50;;
50681;SDS011;36779;52.168;20.878;2022-09-02T12:40:59;0.50;;;0.30;;
50681;SDS011;36779;52.168;20.878;2022-09-02T12:43:44;1.50;;;0.30;;
50681;SDS011;36779;52.168;20.878;2022-09-02T12:46:20;1.00;;;0.50;;
50681;SDS011;36779;52.168;20.878;2022-09-02T12:48:58;2.30;;;0.50;;
50681;SDS011;36779;52.168;20.878;2022-09-02T12:51:50;2.80;;;0.60;;
50681;SDS011;36779;52.168;20.878;2022-09-02T12:54:23;0.90;;;0.50;;
50681;SDS011;36779;52.168;20.878;2022-09-02T12:57:01;2.10;;;0.40;;
50681;SDS011;36779;52.168;20.878;2022-09-02T12:59:31;2.20;;;0.50;;
50681;SDS011;36779;52.168;20.878;2022-09-02T13:02:15;0.70;;;0.30;;
50681;SDS011;36779;52.168;20.878;2022-09-02T13:05:00;2.20;;;0.50;;
50681;SDS011;36779;52.168;20.878;2022-09-02T13:07:47;4.20;;;0.60;;
50681;SDS011;36779;52.168;20.878;2022-09-02T13:13:52;0.80;;;0.40;;
50681;SDS011;36779;52.168;20.878;2022-09-02T13:16:42;1.50;;;0.40;;
50681;SDS011;36779;52.168;20.878;2022-09-02T13:19:38;1.80;;;0.50;;
50681;SDS011;36779;52.168;20.878;2022-09-02T13:22:31;1.30;;;0.50;;
50681;SDS011;36779;52.168;20.878;2022-09-02T13:28:44;1.70;;;0.50;;
50681;SDS011;36779;52.168;20.878;2022-09-02T13:31:28;1.40;;;0.50;;
50681;SDS011;36779;52.168;20.878;2022-09-02T13:33:57;1.00;;;0.50;;
50681;SDS011;36779;52.168;20.878;2022-09-02T13:36:34;1.80;;;0.50;;
50681;SDS011;36779;52.168;20.878;2022-09-02T13:39:09;1.60;;;0.40;;
50681;SDS011;36779;52.168;20.878;2022-09-02T13:41:40;1.80;;;0.40;;
50681;SDS011;36779;52.168;20.878;2022-09-02T13:44:18;1.40;;;0.40;;
50681;SDS011;36779;52.168;20.878;2022-09-02T13:46:49;1.50;;;0.40;;
50681;SDS011;36779;52.168;20.878;2022-09-02T13:49:21;1.20;;;0.40;;
50681;SDS011;36779;52.168;20.878;2022-09-02T13:51:52;1.50;;;0.40;;
50681;SDS011;36779;52.168;20.878;2022-09-02T13:54:30;2.00;;;0.50;;
50681;SDS011;36779;52.168;20.878;2022-09-02T13:57:01;1.50;;;0.50;;
50681;SDS011;36779;52.168;20.878;2022-09-02T13:59:37;2.10;;;0.40;;
50681;SDS011;36779;52.168;20.878;2022-09-02T14:02:20;0.60;;;0.30;;
50681;SDS011;36779;52.168;20.878;2022-09-02T14:04:53;2.00;;;0.40;;
50681;SDS011;36779;52.168;20.878;2022-09-02T14:07:29;1.10;;;0.60;;
50681;SDS011;36779;52.168;20.878;2022-09-02T14:10:00;2.20;;;0.50;;
50681;SDS011;36779;52.168;20.878;2022-09-02T14:12:34;3.80;;;0.50;;
50681;SDS011;36779;52.168;20.878;2022-09-02T14:15:05;1.40;;;0.30;;
50681;SDS011;36779;52.168;20.878;2022-09-02T14:17:36;1.60;;;0.40;;
50681;SDS011;36779;52.168;20.878;2022-09-02T14:20:09;1.80;;;0.50;;
50681;SDS011;36779;52.168;20.878;2022-09-02T14:22:46;1.80;;;0.30;;
50681;SDS011;36779;52.168;20.878;2022-09-02T14:25:21;2.50;;;0.40;;
50681;SDS011;36779;52.168;20.878;2022-09-02T14:27:54;2.90;;;0.40;;
50681;SDS011;36779;52.168;20.878;2022-09-02T14:30:31;3.00;;;0.40;;
50681;SDS011;36779;52.168;20.878;2022-09-02T14:33:17;2.00;;;0.40;;
50681;SDS011;36779;52.168;20.878;2022-09-02T14:36:00;3.20;;;0.40;;
50681;SDS011;36779;52.168;20.878;2022-09-02T14:38:32;2.70;;;0.50;;
50681;SDS011;36779;52.168;20.878;2022-09-02T14:41:18;1.20;;;0.30;;
50681;SDS011;36779;52.168;20.878;2022-09-02T14:43:50;2.70;;;0.40;;
50681;SDS011;36779;52.168;20.878;2022-09-02T14:46:26;2.10;;;0.50;;
50681;SDS011;36779;52.168;20.878;2022-09-02T14:48:58;1.40;;;0.50;;
50681;SDS011;36779;52.168;20.878;2022-09-02T14:51:36;1.10;;;0.40;;
50681;SDS011;36779;52.168;20.878;2022-09-02T14:54:08;1.60;;;0.60;;
50681;SDS011;36779;52.168;20.878;2022-09-02T14:56:45;0.60;;;0.30;;
50681;SDS011;36779;52.168;20.878;2022-09-02T14:59:15;1.50;;;0.40;;
50681;SDS011;36779;52.168;20.878;2022-09-02T15:01:45;2.30;;;0.30;;
50681;SDS011;36779;52.168;20.878;2022-09-02T15:04:18;1.70;;;0.40;;
50681;SDS011;36779;52.168;20.878;2022-09-02T15:06:47;1.00;;;0.40;;
50681;SDS011;36779;52.168;20.878;2022-09-02T15:09:18;1.20;;;0.30;;
50681;SDS011;36779;52.168;20.878;2022-09-02T15:11:48;0.80;;;0.40;;
50681;SDS011;36779;52.168;20.878;2022-09-02T15:14:20;1.50;;;0.40;;
50681;SDS011;36779;52.168;20.878;2022-09-02T15:16:48;0.90;;;0.30;;
50681;SDS011;36779;52.168;20.878;2022-09-02T15:19:17;0.50;;;0.40;;
50681;SDS011;36779;52.168;20.878;2022-09-02T15:21:45;2.40;;;0.40;;
50681;SDS011;36779;52.168;20.878;2022-09-02T15:24:14;1.20;;;0.40;;
50681;SDS011;36779;52.168;20.878;2022-09-02T15:26:42;0.70;;;0.30;;
50681;SDS011;36779;52.168;20.878;2022-09-02T15:29:11;2.70;;;0.50;;
50681;SDS011;36779;52.168;20.878;2022-09-02T15:31:40;3.10;;;0.40;;
50681;SDS011;36779;52.168;20.878;2022-09-02T15:34:09;2.20;;;0.50;;
50681;SDS011;36779;52.168;20.878;2022-09-02T15:36:38;1.50;;;0.30;;
50681;SDS011;36779;52.168;20.878;2022-09-02T15:39:09;1.00;;;0.50;;
50681;SDS011;36779;52.168;20.878;2022-09-02T15:41:38;2.80;;;0.40;;
50681;SDS011;36779;52.168;20.878;2022-09-02T15:44:10;1.40;;;0.40;;
50681;SDS011;36779;52.168;20.878;2022-09-02T15:46:39;1.60;;;0.40;;
50681;SDS011;36779;52.168;20.878;2022-09-02T15:49:10;1.70;;;0.40;;
50681;SDS011;36779;52.168;20.878;2022-09-02T15:51:41;2.10;;;0.40;;
50681;SDS011;36779;52.168;20.878;2022-09-02T15:54:11;14.90;;;0.90;;
50681;SDS011;36779;52.168;20.878;2022-09-02T15:56:43;2.80;;;0.60;;
50681;SDS011;36779;52.168;20.878;2022-09-02T15:59:17;1.60;;;0.40;;
50681;SDS011;36779;52.168;20.878;2022-09-02T16:01:47;1.40;;;0.30;;
50681;SDS011;36779;52.168;20.878;2022-09-02T16:04:18;4.10;;;0.40;;
50681;SDS011;36779;52.168;20.878;2022-09-02T16:06:47;1.90;;;0.90;;
50681;SDS011;36779;52.168;20.878;2022-09-02T16:09:18;1.00;;;0.40;;
50681;SDS011;36779;52.168;20.878;2022-09-02T16:11:47;1.90;;;0.40;;
50681;SDS011;36779;52.168;20.878;2022-09-02T16:14:17;0.80;;;0.50;;
50681;SDS011;36779;52.168;20.878;2022-09-02T16:16:48;1.20;;;0.30;;
50681;SDS011;36779;52.168;20.878;2022-09-02T16:19:22;1.40;;;0.50;;
50681;SDS011;36779;52.168;20.878;2022-09-02T16:21:56;3.00;;;0.40;;
50681;SDS011;36779;52.168;20.878;2022-09-02T16:24:25;1.60;;;0.40;;
50681;SDS011;36779;52.168;20.878;2022-09-02T16:26:55;1.30;;;0.30;;
50681;SDS011;36779;52.168;20.878;2022-09-02T16:29:24;2.70;;;0.60;;
50681;SDS011;36779;52.168;20.878;2022-09-02T16:31:55;0.70;;;0.30;;
50681;SDS011;36779;52.168;20.878;2022-09-02T16:34:44;0.70;;;0.40;;
50681;SDS011;36779;52.168;20.878;2022-09-02T16:37:17;0.50;;;0.30;;
50681;SDS011;36779;52.168;20.878;2022-09-02T16:39:46;1.30;;;0.40;;
50681;SDS011;36779;52.168;20.878;2022-09-02T16:42:16;1.30;;;0.70;;
50681;SDS011;36779;52.168;20.878;2022-09-02T16:44:45;0.90;;;0.60;;
50681;SDS011;36779;52.168;20.878;2022-09-02T16:47:18;1.70;;;0.50;;
50681;SDS011;36779;52.168;20.878;2022-09-02T16:49:47;1.20;;;0.40;;
50681;SDS011;36779;52.168;20.878;2022-09-02T16:52:16;1.10;;;0.40;;
50681;SDS011;36779;52.168;20.878;2022-09-02T16:54:45;0.80;;;0.50;;
50681;SDS011;36779;52.168;20.878;2022-09-02T16:57:22;0.70;;;0.30;;
50681;SDS011;36779;52.168;20.878;2022-09-02T16:59:51;1.70;;;0.50;;
50681;SDS011;36779;52.168;20.878;2022-09-02T17:02:21;2.30;;;0.50;;
50681;SDS011;36779;52.168;20.878;2022-09-02T17:04:54;1.00;;;0.50;;
50681;SDS011;36779;52.168;20.878;2022-09-02T17:07:23;2.50;;;0.80;;
50681;SDS011;36779;52.168;20.878;2022-09-02T17:09:52;1.40;;;0.70;;
50681;SDS011;36779;52.168;20.878;2022-09-02T17:12:21;3.10;;;0.60;;
50681;SDS011;36779;52.168;20.878;2022-09-02T17:14:54;2.30;;;0.40;;
50681;SDS011;36779;52.168;20.878;2022-09-02T17:17:22;1.60;;;0.60;;
50681;SDS011;36779;52.168;20.878;2022-09-02T17:19:51;1.90;;;0.80;;
50681;SDS011;36779;52.168;20.878;2022-09-02T17:22:20;5.00;;;1.40;;
50681;SDS011;36779;52.168;20.878;2022-09-02T17:24:51;2.60;;;1.40;;
50681;SDS011;36779;52.168;20.878;2022-09-02T17:27:21;4.00;;;1.30;;
50681;SDS011;36779;52.168;20.878;2022-09-02T17:29:49;3.60;;;1.40;;
50681;SDS011;36779;52.168;20.878;2022-09-02T17:32:18;3.50;;;1.50;;
50681;SDS011;36779;52.168;20.878;2022-09-02T17:34:48;4.10;;;1.70;;
50681;SDS011;36779;52.168;20.878;2022-09-02T17:37:17;3.80;;;1.70;;
50681;SDS011;36779;52.168;20.878;2022-09-02T17:39:47;3.10;;;1.50;;
50681;SDS011;36779;52.168;20.878;2022-09-02T17:42:16;3.30;;;1.50;;
50681;SDS011;36779;52.168;20.878;2022-09-02T17:44:47;7.00;;;1.50;;
50681;SDS011;36779;52.168;20.878;2022-09-02T17:47:17;5.10;;;1.20;;
50681;SDS011;36779;52.168;20.878;2022-09-02T17:49:47;3.70;;;1.40;;
50681;SDS011;36779;52.168;20.878;2022-09-02T17:52:18;2.00;;;1.00;;
50681;SDS011;36779;52.168;20.878;2022-09-02T17:54:50;3.00;;;1.20;;
50681;SDS011;36779;52.168;20.878;2022-09-02T17:57:20;3.60;;;1.00;;
50681;SDS011;36779;52.168;20.878;2022-09-02T17:59:59;4.10;;;1.40;;
50681;SDS011;36779;52.168;20.878;2022-09-02T18:05:48;2.20;;;1.30;;
50681;SDS011;36779;52.168;20.878;2022-09-02T18:08:25;4.90;;;1.00;;
50681;SDS011;36779;52.168;20.878;2022-09-02T18:11:03;3.90;;;1.10;;
50681;SDS011;36779;52.168;20.878;2022-09-02T18:13:36;1.70;;;0.80;;
50681;SDS011;36779;52.168;20.878;2022-09-02T18:16:19;4.60;;;0.90;;
50681;SDS011;36779;52.168;20.878;2022-09-02T18:18:58;2.60;;;0.90;;
50681;SDS011;36779;52.168;20.878;2022-09-02T18:24:34;3.00;;;0.80;;
50681;SDS011;36779;52.168;20.878;2022-09-02T18:27:20;2.00;;;0.50;;
50681;SDS011;36779;52.168;20.878;2022-09-02T18:30:01;1.90;;;0.70;;
50681;SDS011;36779;52.168;20.878;2022-09-02T18:32:38;2.30;;;0.70;;
50681;SDS011;36779;52.168;20.878;2022-09-02T18:35:23;3.50;;;1.00;;
50681;SDS011;36779;52.168;20.878;2022-09-02T18:38:02;2.30;;;0.70;;
50681;SDS011;36779;52.168;20.878;2022-09-02T18:40:41;2.10;;;0.70;;
50681;SDS011;36779;52.168;20.878;2022-09-02T18:43:19;2.50;;;0.80;;
50681;SDS011;36779;52.168;20.878;2022-09-02T18:45:57;2.30;;;0.70;;
50681;SDS011;36779;52.168;20.878;2022-09-02T18:48:30;1.90;;;0.80;;